createdAt,value
2022-08-27T00:00:09.945Z,101818.25
2022-08-27T00:02:36.397Z,101809.41
2022-08-27T00:05:03.646Z,101818.88
2022-08-27T00:07:30.203Z,101820.56
2022-08-27T00:09:56.611Z,101817.19
2022-08-27T00:12:23.027Z,101811.06
2022-08-27T00:14:49.686Z,101809.41
2022-08-27T00:17:16.092Z,101804.31
2022-08-27T00:19:42.800Z,101806.97
2022-08-27T00:22:09.911Z,101811.16
2022-08-27T00:24:38.402Z,101806.63
2022-08-27T00:27:15.001Z,101799.78
2022-08-27T00:29:41.432Z,101801.91
2022-08-27T00:32:08.949Z,101800.53
2022-08-27T00:34:35.991Z,101799.03
2022-08-27T00:37:03.472Z,101802.31
2022-08-27T00:39:30.208Z,101796.97
2022-08-27T00:41:56.616Z,101788.81
2022-08-27T00:44:23.247Z,101795.06
2022-08-27T00:46:54.896Z,101796.63
2022-08-27T00:49:34.873Z,101792.84
2022-08-27T00:52:06.954Z,101791.13
2022-08-27T00:54:33.775Z,101790.41
2022-08-27T00:57:01.344Z,101793.16
2022-08-27T00:59:31.021Z,101789.97
2022-08-27T01:02:16.637Z,101800.09
2022-08-27T01:04:55.666Z,101802.66
2022-08-27T01:07:24.761Z,101805.16
2022-08-27T01:09:57.456Z,101805.88
2022-08-27T01:12:24.142Z,101804.97
2022-08-27T01:14:51.451Z,101799.69
2022-08-27T01:17:18.390Z,101802.22
2022-08-27T01:19:47.977Z,101809.25
2022-08-27T01:22:24.851Z,101797.78
2022-08-27T01:24:55.847Z,101802.41
2022-08-27T01:27:26.642Z,101803.16
2022-08-27T01:29:53.506Z,101807.59
2022-08-27T01:32:24.811Z,101802.22
2022-08-27T01:34:51.363Z,101804.00
2022-08-27T01:37:23.852Z,101802.41
2022-08-27T01:39:51.677Z,101801.91
2022-08-27T01:42:23.303Z,101800.94
2022-08-27T01:44:53.165Z,101803.69
2022-08-27T01:47:21.600Z,101799.28
2022-08-27T01:49:48.963Z,101806.34
2022-08-27T01:52:19.100Z,101795.78
2022-08-27T01:54:46.094Z,101796.72
2022-08-27T01:57:12.904Z,101797.47
2022-08-27T01:59:40.131Z,101791.97
2022-08-27T02:02:08.188Z,101794.00
2022-08-27T02:04:34.980Z,101790.81
2022-08-27T02:07:01.382Z,101786.19
2022-08-27T02:09:28.062Z,101783.56
2022-08-27T02:11:54.793Z,101791.38
2022-08-27T02:14:21.151Z,101788.00
2022-08-27T02:16:52.048Z,101790.63
2022-08-27T02:19:19.847Z,101778.78
2022-08-27T02:21:46.982Z,101780.50
2022-08-27T02:24:13.699Z,101788.41
2022-08-27T02:26:40.227Z,101779.66
2022-08-27T02:29:06.614Z,101775.22
2022-08-27T02:31:33.389Z,101777.63
2022-08-27T02:34:00.694Z,101770.69
2022-08-27T02:36:27.309Z,101777.03
2022-08-27T02:38:54.408Z,101771.84
2022-08-27T02:41:20.808Z,101779.09
2022-08-27T02:43:47.267Z,101769.31
2022-08-27T02:46:16.978Z,101775.63
2022-08-27T02:48:44.623Z,101776.47
2022-08-27T02:51:11.004Z,101783.84
2022-08-27T02:53:37.974Z,101778.59
2022-08-27T02:56:06.414Z,101769.28
2022-08-27T02:58:33.615Z,101772.03
2022-08-27T03:01:01.860Z,101772.03
2022-08-27T03:03:30.106Z,101763.28
2022-08-27T03:05:58.570Z,101768.47
2022-08-27T03:08:28.577Z,101771.84
2022-08-27T03:10:58.888Z,101771.50
2022-08-27T03:13:26.136Z,101763.69
2022-08-27T03:15:53.441Z,101759.06
2022-08-27T03:18:24.163Z,101758.25
2022-08-27T03:20:55.961Z,101768.88
2022-08-27T03:23:25.162Z,101762.78
2022-08-27T03:25:54.760Z,101767.28
2022-08-27T03:28:25.815Z,101772.75
2022-08-27T03:30:58.206Z,101770.25
2022-08-27T03:33:26.189Z,101771.56
2022-08-27T03:35:52.843Z,101770.00
2022-08-27T03:38:20.130Z,101763.25
2022-08-27T03:40:47.048Z,101765.31
2022-08-27T03:43:14.817Z,101765.78
2022-08-27T03:46:01.352Z,101762.19
2022-08-27T03:48:30.822Z,101766.91
2022-08-27T03:50:57.249Z,101767.22
2022-08-27T03:53:23.796Z,101764.34
2022-08-27T03:55:50.146Z,101762.78
2022-08-27T03:58:17.870Z,101772.78
2022-08-27T04:00:44.285Z,101769.59
2022-08-27T04:03:14.935Z,101767.69
2022-08-27T04:05:45.245Z,101774.66
2022-08-27T04:08:13.223Z,101778.13
2022-08-27T04:10:42.654Z,101767.50
2022-08-27T04:13:09.152Z,101771.81
2022-08-27T04:15:40.568Z,101779.63
2022-08-27T04:18:07.599Z,101780.38
2022-08-27T04:20:35.821Z,101778.47
2022-08-27T04:23:02.997Z,101781.94
2022-08-27T04:25:29.425Z,101773.13
2022-08-27T04:27:55.975Z,101774.69
2022-08-27T04:30:22.519Z,101773.00
2022-08-27T04:32:49.315Z,101775.00
2022-08-27T04:35:16.296Z,101775.09
2022-08-27T04:37:43.147Z,101774.38
2022-08-27T04:40:10.331Z,101765.72
2022-08-27T04:42:36.790Z,101770.34
2022-08-27T04:45:03.699Z,101769.81
2022-08-27T04:47:30.966Z,101772.53
2022-08-27T04:49:57.582Z,101775.25
2022-08-27T04:52:24.835Z,101778.00
2022-08-27T04:54:51.895Z,101773.56
2022-08-27T04:57:18.744Z,101773.56
2022-08-27T04:59:45.482Z,101778.84
2022-08-27T05:02:11.883Z,101780.72
2022-08-27T05:04:40.317Z,101786.00
2022-08-27T05:07:09.070Z,101789.66
2022-08-27T05:09:35.602Z,101791.66
2022-08-27T05:12:02.294Z,101786.38
2022-08-27T05:14:30.492Z,101789.66
2022-08-27T05:16:58.516Z,101784.50
2022-08-27T05:19:25.299Z,101787.13
2022-08-27T05:21:56.061Z,101783.00
2022-08-27T05:24:23.071Z,101786.38
2022-08-27T05:26:49.917Z,101789.84
2022-08-27T05:29:17.079Z,101785.16
2022-08-27T05:31:43.946Z,101792.75
2022-08-27T05:34:20.276Z,101787.78
2022-08-27T05:36:53.067Z,101799.34
2022-08-27T05:39:19.527Z,101801.34
2022-08-27T05:41:45.940Z,101809.97
2022-08-27T05:44:46.291Z,101805.25
2022-08-27T05:46:58.955Z,101804.94
2022-08-27T05:49:25.846Z,101805.81
2022-08-27T05:51:52.208Z,101795.06
2022-08-27T05:54:21.351Z,101801.09
2022-08-27T05:56:52.167Z,101800.88
2022-08-27T05:59:37.661Z,101802.56
2022-08-27T06:02:05.993Z,101797.41
2022-08-27T06:04:32.506Z,101798.97
2022-08-27T06:06:58.984Z,101795.34
2022-08-27T06:09:28.789Z,101799.53
2022-08-27T06:11:57.806Z,101797.75
2022-08-27T06:14:24.718Z,101800.28
2022-08-27T06:16:51.501Z,101800.59
2022-08-27T06:19:18.292Z,101797.75
2022-08-27T06:21:44.956Z,101807.13
2022-08-27T06:24:13.071Z,101803.19
2022-08-27T06:26:42.238Z,101794.44
2022-08-27T06:29:09.867Z,101798.88
2022-08-27T06:31:36.623Z,101802.03
2022-08-27T06:34:07.607Z,101801.66
2022-08-27T06:36:37.993Z,101808.84
2022-08-27T06:39:05.841Z,101805.03
2022-08-27T06:41:33.305Z,101805.38
2022-08-27T06:43:59.769Z,101806.84
2022-08-27T06:46:28.176Z,101812.03
2022-08-27T06:48:56.815Z,101805.69
2022-08-27T06:51:29.666Z,101807.72
2022-08-27T06:53:59.523Z,101806.94
2022-08-27T06:56:26.698Z,101804.56
2022-08-27T06:58:58.975Z,101809.19
2022-08-27T07:01:30.711Z,101804.22
2022-08-27T07:03:59.780Z,101813.31
2022-08-27T07:06:29.857Z,101813.19
2022-08-27T07:08:57.063Z,101810.97
2022-08-27T07:11:24.306Z,101811.28
2022-08-27T07:13:51.249Z,101808.50
2022-08-27T07:16:23.342Z,101814.06
2022-08-27T07:18:52.049Z,101814.88
2022-08-27T07:21:20.026Z,101803.19
2022-08-27T07:23:47.314Z,101814.94
2022-08-27T07:26:15.011Z,101805.59
2022-08-27T07:28:43.819Z,101811.91
2022-08-27T07:31:13.539Z,101808.44
2022-08-27T07:33:40.319Z,101813.31
2022-08-27T07:36:12.731Z,101816.50
2022-08-27T07:38:39.222Z,101820.75
2022-08-27T07:41:11.328Z,101824.44
2022-08-27T07:43:57.021Z,101825.38
2022-08-27T07:46:24.894Z,101827.72
2022-08-27T07:48:52.676Z,101818.84
2022-08-27T07:51:22.171Z,101833.72
2022-08-27T07:53:49.394Z,101832.25
2022-08-27T07:56:16.158Z,101830.47
2022-08-27T07:58:43.324Z,101836.38
2022-08-27T08:01:10.771Z,101841.19
2022-08-27T08:03:37.218Z,101838.34
2022-08-27T08:06:12.563Z,101837.16
2022-08-27T08:08:40.895Z,101835.88
2022-08-27T08:11:12.594Z,101836.75
2022-08-27T08:13:39.716Z,101840.72
2022-08-27T08:16:06.457Z,101839.09
2022-08-27T08:18:33.665Z,101841.69
2022-08-27T08:21:05.854Z,101840.78
2022-08-27T08:23:33.634Z,101838.41
2022-08-27T08:26:00.950Z,101846.34
2022-08-27T08:28:30.057Z,101841.91
2022-08-27T08:30:57.763Z,101848.66
2022-08-27T08:33:25.063Z,101849.47
2022-08-27T08:35:51.533Z,101847.66
2022-08-27T08:38:19.236Z,101846.66
2022-08-27T08:40:50.233Z,101846.06
2022-08-27T08:43:39.162Z,101852.19
2022-08-27T08:46:09.802Z,101851.00
2022-08-27T08:48:40.520Z,101851.88
2022-08-27T08:51:29.448Z,101849.03
2022-08-27T08:54:05.202Z,101848.78
2022-08-27T08:56:55.164Z,101849.91
2022-08-27T08:59:27.936Z,101855.75
2022-08-27T09:01:54.711Z,101854.97
2022-08-27T09:04:25.314Z,101856.66
2022-08-27T09:07:02.558Z,101852.56
2022-08-27T09:09:44.739Z,101865.66
2022-08-27T09:12:16.326Z,101851.72
2022-08-27T09:14:50.714Z,101859.78
2022-08-27T09:17:17.375Z,101853.63
2022-08-27T09:19:43.851Z,101852.81
2022-08-27T09:22:51.213Z,101852.94
2022-08-27T09:25:25.944Z,101861.69
2022-08-27T09:27:59.628Z,101857.47
2022-08-27T09:30:31.501Z,101862.66
2022-08-27T09:33:01.374Z,101870.31
2022-08-27T09:35:42.222Z,101862.09
2022-08-27T09:38:09.598Z,101858.94
2022-08-27T09:40:46.811Z,101864.25
2022-08-27T09:43:16.827Z,101867.13
2022-08-27T09:45:48.986Z,101870.03
2022-08-27T09:48:19.729Z,101869.06
2022-08-27T09:50:59.736Z,101863.66
2022-08-27T09:53:44.550Z,101859.19
2022-08-27T09:56:21.835Z,101857.56
2022-08-27T09:58:53.751Z,101859.03
2022-08-27T10:01:26.776Z,101855.66
2022-08-27T10:04:11.248Z,101858.28
2022-08-27T10:06:44.643Z,101853.47
2022-08-27T10:09:26.652Z,101858.72
2022-08-27T10:12:22.988Z,101863.75
2022-08-27T10:14:55.120Z,101854.56
2022-08-27T10:17:31.704Z,101857.34
2022-08-27T10:20:07.266Z,101857.94
2022-08-27T10:23:22.635Z,101858.81
2022-08-27T10:26:31.937Z,101864.84
2022-08-27T10:29:34.782Z,101856.44
2022-08-27T10:32:46.225Z,101861.31
2022-08-27T10:35:48.014Z,101865.50
2022-08-27T10:38:30.006Z,101860.84
2022-08-27T10:41:15.740Z,101865.63
2022-08-27T10:43:59.054Z,101862.34
2022-08-27T10:46:50.632Z,101868.97
2022-08-27T10:49:52.566Z,101858.66
2022-08-27T10:52:28.712Z,101857.56
2022-08-27T10:55:12.699Z,101861.53
2022-08-27T10:58:01.842Z,101857.94
2022-08-27T11:00:42.937Z,101852.41
2022-08-27T11:03:14.158Z,101848.38
2022-08-27T11:05:47.442Z,101856.22
2022-08-27T11:08:27.711Z,101847.81
2022-08-27T11:11:57.155Z,101845.75
2022-08-27T11:13:58.913Z,101853.41
2022-08-27T11:16:44.789Z,101851.03
2022-08-27T11:19:23.238Z,101852.41
2022-08-27T11:22:01.676Z,101851.75
2022-08-27T11:24:52.657Z,101851.03
2022-08-27T11:27:24.116Z,101848.38
2022-08-27T11:30:05.270Z,101846.22
2022-08-27T11:32:43.662Z,101858.19
2022-08-27T11:35:18.984Z,101858.03
2022-08-27T11:38:07.274Z,101856.00
2022-08-27T11:41:16.846Z,101848.19
2022-08-27T11:43:44.901Z,101851.22
2022-08-27T11:46:12.082Z,101845.91
2022-08-27T11:48:42.564Z,101854.81
2022-08-27T11:51:33.542Z,101847.34
2022-08-27T11:54:03.599Z,101842.28
2022-08-27T11:56:29.935Z,101839.75
2022-08-27T11:59:08.130Z,101836.50
2022-08-27T12:01:34.556Z,101847.34
2022-08-27T12:04:05.810Z,101843.84
2022-08-27T12:06:44.239Z,101841.25
2022-08-27T12:09:23.560Z,101835.22
2022-08-27T12:12:15.085Z,101840.22
2022-08-27T12:15:34.200Z,101835.34
2022-08-27T12:18:38.420Z,101830.72
2022-08-27T12:21:39.033Z,101836.44
2022-08-27T12:24:08.449Z,101838.56
2022-08-27T12:26:36.891Z,101837.34
2022-08-27T12:29:27.717Z,101833.38
2022-08-27T12:32:19.521Z,101828.88
2022-08-27T12:35:22.880Z,101833.34
2022-08-27T12:38:17.524Z,101835.16
2022-08-27T12:40:52.364Z,101835.91
2022-08-27T12:43:24.825Z,101827.34
2022-08-27T12:45:53.032Z,101820.88
2022-08-27T12:48:27.155Z,101829.25
2022-08-27T12:50:57.994Z,101828.94
2022-08-27T12:56:13.105Z,101818.66
2022-08-27T12:58:52.522Z,101832.53
2022-08-27T13:01:43.235Z,101826.53
2022-08-27T13:06:45.428Z,101821.00
2022-08-27T13:09:13.020Z,101818.47
2022-08-27T13:11:56.444Z,101817.09
2022-08-27T13:14:24.996Z,101818.47
2022-08-27T13:17:02.883Z,101814.50
2022-08-27T13:19:43.302Z,101816.06
2022-08-27T13:22:10.126Z,101819.72
2022-08-27T13:24:48.592Z,101815.66
2022-08-27T13:27:15.283Z,101813.53
2022-08-27T13:29:42.711Z,101818.31
2022-08-27T13:32:13.499Z,101813.03
2022-08-27T13:34:40.938Z,101812.47
2022-08-27T13:37:33.844Z,101817.75
2022-08-27T13:40:00.352Z,101817.00
2022-08-27T13:42:27.748Z,101816.25
2022-08-27T13:45:02.923Z,101805.97
2022-08-27T13:47:30.607Z,101810.84
2022-08-27T13:50:07.490Z,101812.16
2022-08-27T13:52:36.517Z,101807.75
2022-08-27T13:55:09.068Z,101821.09
2022-08-27T13:57:43.691Z,101820.91
2022-08-27T14:00:16.488Z,101818.25
2022-08-27T14:02:43.510Z,101810.22
2022-08-27T14:05:25.592Z,101814.25
2022-08-27T14:07:58.310Z,101810.97
2022-08-27T14:10:36.618Z,101810.75
2022-08-27T14:13:10.165Z,101809.63
2022-08-27T14:15:38.655Z,101815.19
2022-08-27T14:18:08.168Z,101809.31
2022-08-27T14:20:34.942Z,101815.66
2022-08-27T14:23:01.374Z,101810.19
2022-08-27T14:25:27.886Z,101810.69
2022-08-27T14:27:55.027Z,101812.00
2022-08-27T14:30:25.250Z,101814.34
2022-08-27T14:32:58.565Z,101815.97
2022-08-27T14:35:25.651Z,101812.63
2022-08-27T14:37:52.161Z,101811.47
2022-08-27T14:40:19.002Z,101812.00
2022-08-27T14:42:45.700Z,101821.38
2022-08-27T14:45:12.096Z,101822.09
2022-08-27T14:47:39.892Z,101825.38
2022-08-27T14:50:13.958Z,101826.13
2022-08-27T14:52:40.756Z,101826.72
2022-08-27T14:55:10.780Z,101823.25
2022-08-27T14:57:37.749Z,101818.44
2022-08-27T15:00:06.827Z,101832.50
2022-08-27T15:02:33.670Z,101831.31
2022-08-27T15:05:00.212Z,101827.53
2022-08-27T15:07:26.883Z,101831.44
2022-08-27T15:09:55.911Z,101836.75
2022-08-27T15:12:26.558Z,101829.22
2022-08-27T15:14:54.016Z,101835.22
2022-08-27T15:17:34.730Z,101844.16
2022-08-27T15:20:04.951Z,101837.06
2022-08-27T15:22:33.829Z,101843.72
2022-08-27T15:25:02.114Z,101846.63
2022-08-27T15:27:34.714Z,101848.88
2022-08-27T15:30:10.386Z,101855.78
2022-08-27T15:32:44.023Z,101858.66
2022-08-27T15:35:15.278Z,101853.25
2022-08-27T15:37:43.619Z,101852.97
2022-08-27T15:40:12.480Z,101855.06
2022-08-27T15:42:39.133Z,101859.94
2022-08-27T15:45:06.788Z,101861.91
2022-08-27T15:47:33.769Z,101864.06
2022-08-27T15:50:00.755Z,101853.13
2022-08-27T15:52:36.969Z,101852.50
2022-08-27T15:55:16.830Z,101855.53
2022-08-27T15:57:43.271Z,101850.97
2022-08-27T16:00:10.494Z,101847.22
2022-08-27T16:02:37.076Z,101848.06
2022-08-27T16:05:03.859Z,101844.69
2022-08-27T16:07:30.879Z,101848.38
2022-08-27T16:09:57.559Z,101845.16
2022-08-27T16:12:26.733Z,101847.59
2022-08-27T16:14:54.091Z,101849.25
2022-08-27T16:17:21.158Z,101843.84
2022-08-27T16:19:47.948Z,101851.31
2022-08-27T16:22:16.245Z,101845.91
2022-08-27T16:24:42.852Z,101853.28
2022-08-27T16:27:09.277Z,101857.50
2022-08-27T16:29:35.715Z,101855.53
2022-08-27T16:32:02.401Z,101847.00
2022-08-27T16:34:29.276Z,101849.53
2022-08-27T16:36:56.517Z,101856.50
2022-08-27T16:39:23.334Z,101858.19
2022-08-27T16:41:50.332Z,101859.03
2022-08-27T16:44:17.560Z,101864.19
2022-08-27T16:46:44.510Z,101857.34
2022-08-27T16:49:29.668Z,101861.44
2022-08-27T16:51:56.272Z,101853.38
2022-08-27T16:54:22.894Z,101852.44
2022-08-27T16:56:49.735Z,101856.00
2022-08-27T16:59:16.582Z,101855.66
2022-08-27T17:01:45.951Z,101853.13
2022-08-27T17:04:19.328Z,101857.81
2022-08-27T17:06:51.602Z,101853.13
2022-08-27T17:09:18.773Z,101861.88
2022-08-27T17:11:50.226Z,101858.66
2022-08-27T17:14:16.626Z,101860.56
2022-08-27T17:16:43.335Z,101856.84
2022-08-27T17:19:10.992Z,101861.06
2022-08-27T17:21:45.162Z,101857.56
2022-08-27T17:24:12.856Z,101854.81
2022-08-27T17:26:39.825Z,101853.47
2022-08-27T17:29:06.452Z,101861.41
2022-08-27T17:31:37.091Z,101863.81
2022-08-27T17:34:07.157Z,101861.53
2022-08-27T17:36:34.793Z,101859.19
2022-08-27T17:39:02.792Z,101862.41
2022-08-27T17:41:34.184Z,101864.59
2022-08-27T17:44:06.472Z,101863.75
2022-08-27T17:46:33.070Z,101861.22
2022-08-27T17:48:59.750Z,101863.59
2022-08-27T17:51:27.862Z,101863.13
2022-08-27T17:54:00.617Z,101866.00
2022-08-27T17:56:27.775Z,101867.94
2022-08-27T17:58:54.825Z,101865.84
2022-08-27T18:01:28.155Z,101867.03
2022-08-27T18:03:56.569Z,101873.50
2022-08-27T18:06:23.644Z,101882.88
2022-08-27T18:08:50.250Z,101877.19
2022-08-27T18:11:17.332Z,101878.25
2022-08-27T18:13:45.664Z,101883.13
2022-08-27T18:16:12.200Z,101884.00
2022-08-27T18:18:38.759Z,101887.38
2022-08-27T18:21:07.796Z,101885.78
2022-08-27T18:23:36.922Z,101891.06
2022-08-27T18:26:05.332Z,101895.75
2022-08-27T18:28:34.790Z,101895.00
2022-08-27T18:31:06.574Z,101898.59
2022-08-27T18:33:33.292Z,101897.38
2022-08-27T18:35:59.672Z,101907.53
2022-08-27T18:38:26.731Z,101905.31
2022-08-27T18:40:54.276Z,101912.59
2022-08-27T18:43:26.614Z,101913.75
2022-08-27T18:45:53.045Z,101920.00
2022-08-27T18:48:22.327Z,101924.75
2022-08-27T18:50:58.387Z,101925.94
2022-08-27T18:53:27.591Z,101925.13
2022-08-27T18:55:54.299Z,101927.75
2022-08-27T18:58:21.344Z,101922.56
2022-08-27T19:00:51.042Z,101930.81
2022-08-27T19:03:22.920Z,101932.72
2022-08-27T19:05:54.784Z,101936.44
2022-08-27T19:08:23.485Z,101935.03
2022-08-27T19:10:49.972Z,101937.81
2022-08-27T19:13:16.379Z,101941.28
2022-08-27T19:15:46.334Z,101937.19
2022-08-27T19:18:12.895Z,101945.19
2022-08-27T19:20:39.433Z,101948.66
2022-08-27T19:23:05.986Z,101956.72
2022-08-27T19:25:32.669Z,101954.25
2022-08-27T19:27:59.344Z,101954.59
2022-08-27T19:30:25.875Z,101956.47
2022-08-27T19:32:57.666Z,101957.94
2022-08-27T19:35:24.686Z,101957.84
2022-08-27T19:37:53.464Z,101954.25
2022-08-27T19:40:21.951Z,101962.38
2022-08-27T19:42:49.331Z,101961.00
2022-08-27T19:45:15.983Z,101973.44
2022-08-27T19:47:50.755Z,101971.66
2022-08-27T19:50:17.794Z,101977.78
2022-08-27T19:52:44.298Z,101978.81
2022-08-27T19:55:13.966Z,101972.94
2022-08-27T19:57:41.141Z,101988.16
2022-08-27T20:00:09.567Z,101984.78
2022-08-27T20:02:37.162Z,101989.22
2022-08-27T20:05:17.907Z,101981.72
2022-08-27T20:07:46.593Z,101995.03
2022-08-27T20:10:13.575Z,101987.78
2022-08-27T20:12:42.727Z,101991.69
2022-08-27T20:15:09.616Z,101992.28
2022-08-27T20:17:36.213Z,101995.66
2022-08-27T20:20:04.440Z,101993.03
2022-08-27T20:22:31.030Z,101995.88
2022-08-27T20:24:57.505Z,101993.44
2022-08-27T20:27:23.900Z,101991.81
2022-08-27T20:29:50.459Z,101992.13
2022-08-27T20:32:16.995Z,101988.66
2022-08-27T20:34:44.252Z,101988.75
2022-08-27T20:37:10.913Z,101992.34
2022-08-27T20:39:38.337Z,101987.25
2022-08-27T20:42:05.795Z,101993.78
2022-08-27T20:44:32.497Z,102000.56
2022-08-27T20:47:01.529Z,101988.22
2022-08-27T20:49:28.786Z,102000.06
2022-08-27T20:52:02.574Z,101991.53
2022-08-27T20:54:30.122Z,102003.22
2022-08-27T20:56:56.618Z,102006.31
2022-08-27T20:59:41.533Z,102006.22
2022-08-27T21:02:10.974Z,102008.88
2022-08-27T21:04:47.260Z,102004.81
2022-08-27T21:07:15.999Z,102008.69
2022-08-27T21:09:56.864Z,102011.97
2022-08-27T21:12:26.450Z,102010.38
2022-08-27T21:14:54.954Z,102015.66
2022-08-27T21:17:24.780Z,102013.75
2022-08-27T21:19:51.452Z,102008.69
2022-08-27T21:22:22.637Z,102008.78
2022-08-27T21:24:49.233Z,102016.88
2022-08-27T21:27:17.537Z,102010.81
2022-08-27T21:29:44.889Z,102016.66
2022-08-27T21:32:11.742Z,102007.09
2022-08-27T21:34:38.257Z,102014.41
2022-08-27T21:37:04.880Z,102013.66
2022-08-27T21:39:32.797Z,102007.63
2022-08-27T21:42:00.684Z,102011.69
2022-08-27T21:44:27.694Z,102017.22
2022-08-27T21:46:54.219Z,102018.19
2022-08-27T21:49:23.255Z,102020.69
2022-08-27T21:51:49.737Z,102024.00
2022-08-27T21:54:17.424Z,102021.09
2022-08-27T21:56:44.413Z,102016.38
2022-08-27T21:59:10.956Z,102015.63
2022-08-27T22:01:37.748Z,102017.31
2022-08-27T22:04:04.312Z,102019.84
2022-08-27T22:06:34.125Z,102023.34
2022-08-27T22:09:00.865Z,102019.94
2022-08-27T22:11:28.004Z,102018.56
2022-08-27T22:13:58.233Z,102019.56
2022-08-27T22:16:24.837Z,102025.22
2022-08-27T22:18:54.689Z,102035.63
2022-08-27T22:21:22.098Z,102033.88
2022-08-27T22:23:51.365Z,102032.53
2022-08-27T22:26:22.068Z,102033.47
2022-08-27T22:28:48.517Z,102033.72
2022-08-27T22:31:15.757Z,102035.97
2022-08-27T22:33:42.318Z,102032.31
2022-08-27T22:36:09.116Z,102033.25
2022-08-27T22:38:35.546Z,102031.28
2022-08-27T22:41:02.815Z,102035.13
2022-08-27T22:43:29.230Z,102024.22
2022-08-27T22:45:55.929Z,102029.66
2022-08-27T22:48:24.690Z,102037.63
2022-08-27T22:50:51.056Z,102037.91
2022-08-27T22:53:17.457Z,102040.34
2022-08-27T22:55:48.014Z,102043.06
2022-08-27T22:58:16.652Z,102037.81
2022-08-27T23:00:46.467Z,102036.84
2022-08-27T23:03:18.428Z,102039.41
2022-08-27T23:05:45.163Z,102039.75
2022-08-27T23:08:13.885Z,102039.47
2022-08-27T23:10:41.804Z,102045.31
2022-08-27T23:13:08.484Z,102039.78
2022-08-27T23:15:35.283Z,102045.97
2022-08-27T23:18:01.851Z,102046.63
2022-08-27T23:20:28.870Z,102050.19
2022-08-27T23:22:56.109Z,102051.97
2022-08-27T23:25:43.390Z,102050.47
2022-08-27T23:28:14.367Z,102052.50
2022-08-27T23:30:42.717Z,102051.50
2022-08-27T23:33:09.580Z,102043.59
2022-08-27T23:35:36.194Z,102042.75
2022-08-27T23:38:02.812Z,102043.94
2022-08-27T23:40:30.278Z,102044.97
2022-08-27T23:42:57.149Z,102045.91
2022-08-27T23:45:25.186Z,102047.78
2022-08-27T23:47:52.026Z,102052.38
2022-08-27T23:50:18.620Z,102047.94
2022-08-27T23:52:45.049Z,102043.03
2022-08-27T23:55:12.372Z,102053.47
2022-08-27T23:57:39.724Z,102042.19
